Time;durP1;ratioP1;P1;durP2;ratioP2;P2;SDS_P1;SDS_P2;PMS_P1;PMS_P2;Temp;Humidity;BMP_temperature;BMP_pressure;BME280_temperature;BME280_humidity;BME280_pressure;Samples;Min_cycle;Max_cycle;Signal;HPM_P1;HPM_P2
2024/01/04 00:02:25;;;;;;;1.30;0.90;;;;;;;15.33;52.95;95954.56;105625;1253;74555;-39
2024/01/04 00:04:52;;;;;;;1.10;1.00;;;;;;;15.34;52.95;95955.42;105590;1256;65819;-39
2024/01/04 00:07:19;;;;;;;1.20;0.80;;;;;;;15.34;52.80;95954.03;105766;1253;72587;-39
2024/01/04 00:09:46;;;;;;;1.80;1.00;;;;;;;15.34;52.86;95955.80;105751;1256;61264;-39
2024/01/04 00:12:13;;;;;;;1.20;0.90;;;;;;;15.34;52.84;95959.96;105792;1253;61255;-39
2024/01/04 00:14:40;;;;;;;1.30;1.10;;;;;;;15.34;52.90;95958.27;105859;1252;74391;-40
2024/01/04 00:17:07;;;;;;;0.80;0.80;;;;;;;15.34;52.85;95959.89;105919;1256;66099;-39
2024/01/04 00:19:33;;;;;;;1.60;1.00;;;;;;;15.34;52.94;95959.58;105724;1253;72399;-40
2024/01/04 00:22:00;;;;;;;1.00;0.90;;;;;;;15.34;52.87;95959.35;105684;1256;61341;-40
2024/01/04 00:24:26;;;;;;;1.10;1.00;;;;;;;15.34;52.89;95964.74;105781;1252;61320;-40
2024/01/04 00:26:53;;;;;;;1.20;0.90;;;;;;;15.35;52.88;95968.61;105876;1252;61247;-39
2024/01/04 00:29:19;;;;;;;1.80;0.80;;;;;;;15.35;52.87;95973.70;105793;1256;65516;-39
2024/01/04 00:31:46;;;;;;;1.50;1.10;;;;;;;15.35;52.91;95971.62;105813;1256;61254;-39
2024/01/04 00:34:13;;;;;;;1.10;0.90;;;;;;;15.35;52.90;95971.70;105723;1258;61218;-39
2024/01/04 00:36:40;;;;;;;2.10;0.90;;;;;;;15.36;52.89;95965.38;105843;1253;61381;-39
2024/01/04 00:44:11;;;;;;;1.10;0.90;;;;;;;15.35;52.87;95959.43;105757;1253;67580;-38
2024/01/04 00:46:37;;;;;;;1.30;0.80;;;;;;;15.35;52.85;95962.90;105881;1256;72360;-39
2024/01/04 00:49:04;;;;;;;0.90;0.80;;;;;;;15.35;52.77;95956.27;105894;1256;61322;-38
2024/01/04 00:51:31;;;;;;;1.00;0.90;;;;;;;15.35;52.97;95952.42;105581;1253;61185;-39
2024/01/04 00:53:57;;;;;;;1.10;1.00;;;;;;;15.35;52.88;95952.89;105613;1255;74465;-39
2024/01/04 00:56:24;;;;;;;0.80;0.80;;;;;;;15.35;52.90;95953.27;105709;1258;66186;-38
2024/01/04 00:58:50;;;;;;;1.00;0.90;;;;;;;15.35;53.00;95953.20;105664;1253;72701;-39
2024/01/04 01:01:17;;;;;;;1.30;0.90;;;;;;;15.36;52.96;95954.13;105887;1256;61248;-38
2024/01/04 01:03:43;;;;;;;1.00;0.90;;;;;;;15.35;52.93;95954.13;105901;1253;61446;-38
2024/01/04 01:06:11;;;;;;;0.90;0.80;;;;;;;15.35;52.86;95956.59;105724;1255;74347;-39
2024/01/04 01:08:37;;;;;;;0.90;0.80;;;;;;;15.35;52.86;95959.36;105639;1256;64757;-39
2024/01/04 01:11:06;;;;;;;1.20;0.90;;;;;;;15.35;52.91;95956.36;105561;1256;72339;-39
2024/01/04 01:13:32;;;;;;;1.40;1.00;;;;;;;15.35;53.00;95951.04;105530;1259;61204;-39
2024/01/04 01:15:59;;;;;;;0.80;0.80;;;;;;;15.35;52.99;95943.72;105465;1253;159680;-38
2024/01/04 01:18:25;;;;;;;1.10;1.00;;;;;;;15.35;52.88;95948.10;105606;1253;61276;-39
2024/01/04 01:20:52;;;;;;;1.30;0.90;;;;;;;15.35;52.90;95946.42;105562;1257;67141;-39
2024/01/04 01:23:19;;;;;;;1.00;1.00;;;;;;;15.34;52.88;95937.61;105630;1253;72414;-39
2024/01/04 01:25:46;;;;;;;0.90;0.90;;;;;;;15.34;52.95;95942.32;105614;1256;61459;-39
2024/01/04 01:28:13;;;;;;;0.90;0.90;;;;;;;15.35;52.88;95932.70;105731;1253;61340;-38
2024/01/04 01:30:43;;;;;;;2.40;0.80;;;;;;;15.35;52.86;95941.80;105697;1257;75003;-38
2024/01/04 01:33:10;;;;;;;1.20;1.00;;;;;;;15.35;52.89;95935.23;105650;1258;66463;-39
2024/01/04 01:35:37;;;;;;;1.00;0.90;;;;;;;15.34;52.86;95930.45;105734;1253;72598;-39
2024/01/04 01:38:04;;;;;;;0.90;0.90;;;;;;;15.35;52.80;95927.31;105632;1257;61370;-39
2024/01/04 01:40:31;;;;;;;0.70;0.70;;;;;;;15.35;52.89;95934.17;105585;1253;61322;-39
2024/01/04 01:42:59;;;;;;;1.70;1.00;;;;;;;15.35;52.96;95933.32;105844;1253;74472;-39
2024/01/04 01:45:25;;;;;;;0.70;0.70;;;;;;;15.35;52.85;95934.31;105903;1256;65040;-39
2024/01/04 01:47:52;;;;;;;1.60;0.90;;;;;;;15.35;52.88;95932.70;105919;1253;72331;-38
2024/01/04 01:50:20;;;;;;;1.00;1.00;;;;;;;15.35;52.87;95932.64;105864;1256;61232;-39
2024/01/04 01:52:48;;;;;;;1.10;0.90;;;;;;;15.36;52.83;95932.92;105748;1253;61416;-40
2024/01/04 01:55:15;;;;;;;0.80;0.80;;;;;;;15.36;52.92;95935.08;105688;1256;74625;-39
2024/01/04 01:57:42;;;;;;;1.10;1.00;;;;;;;15.36;52.93;95931.23;105687;1259;65540;-38
2024/01/04 02:00:15;;;;;;;1.30;0.90;;;;;;;15.36;52.91;95938.33;105721;1253;73512;-39
2024/01/04 02:02:48;;;;;;;0.90;0.70;;;;;;;15.36;52.90;95934.33;105829;1256;61237;-39
2024/01/04 02:05:15;;;;;;;1.10;0.80;;;;;;;15.36;52.84;95937.64;105692;1252;61264;-39
2024/01/04 02:07:45;;;;;;;1.50;0.90;;;;;;;15.37;52.86;95940.64;105926;1256;74903;-39
2024/01/04 02:10:13;;;;;;;0.80;0.80;;;;;;;15.37;52.96;95941.19;105679;1258;65974;-39
2024/01/04 02:12:39;;;;;;;1.20;0.90;;;;;;;15.37;52.93;95944.73;105817;1253;72673;-39
2024/01/04 02:15:07;;;;;;;0.80;0.80;;;;;;;15.37;52.99;95941.66;105669;1258;61362;-39
2024/01/04 02:17:34;;;;;;;1.00;0.90;;;;;;;15.37;53.03;95941.50;105888;1253;61365;-39
2024/01/04 02:20:01;;;;;;;1.20;1.00;;;;;;;15.37;52.91;95938.27;105530;1253;74593;-39
2024/01/04 02:22:30;;;;;;;1.00;0.90;;;;;;;15.37;52.90;95939.11;105617;1256;66351;-39
2024/01/04 02:24:57;;;;;;;0.80;0.80;;;;;;;15.38;52.91;95935.05;105653;1253;72582;-40
2024/01/04 02:27:23;;;;;;;0.80;0.80;;;;;;;15.38;52.88;95937.13;105764;1256;61250;-39
2024/01/04 02:29:50;;;;;;;1.00;0.90;;;;;;;15.38;52.94;95934.20;105881;1253;61303;-39
2024/01/04 02:32:16;;;;;;;0.70;0.70;;;;;;;15.38;52.88;95933.11;105898;1253;74404;-40
2024/01/04 02:34:43;;;;;;;1.10;0.90;;;;;;;15.38;52.90;95930.80;105679;1256;65054;-39
2024/01/04 02:37:09;;;;;;;0.70;0.70;;;;;;;15.38;52.87;95928.11;105609;1253;72390;-39
2024/01/04 02:39:36;;;;;;;0.90;0.90;;;;;;;15.38;52.86;95923.09;105627;1256;61288;-39
2024/01/04 02:42:03;;;;;;;0.80;0.80;;;;;;;15.39;52.81;95917.48;105868;1253;61240;-39
2024/01/04 02:44:30;;;;;;;1.00;0.80;;;;;;;15.38;52.80;95917.01;105987;1252;74498;-38
2024/01/04 02:46:56;;;;;;;0.90;0.80;;;;;;;15.38;52.77;95910.39;105807;1258;66712;-38
2024/01/04 02:49:23;;;;;;;0.90;0.80;;;;;;;15.39;52.85;95913.16;105864;1253;72450;-38
2024/01/04 02:51:50;;;;;;;0.80;0.80;;;;;;;15.38;52.88;95913.39;105869;1256;61237;-39
2024/01/04 02:54:17;;;;;;;0.80;0.80;;;;;;;15.39;52.79;95910.70;105887;1253;61333;-40
2024/01/04 02:56:44;;;;;;;1.00;0.90;;;;;;;15.39;52.97;95906.91;106072;1253;74458;-39
2024/01/04 02:59:10;;;;;;;1.00;0.90;;;;;;;15.38;52.91;95908.91;105682;1259;64840;-39
2024/01/04 03:01:37;;;;;;;0.70;0.70;;;;;;;15.38;52.88;95909.00;106397;1252;72589;-38
2024/01/04 03:04:03;;;;;;;0.60;0.60;;;;;;;15.39;52.87;95909.61;105893;1252;61215;-38
2024/01/04 03:06:30;;;;;;;0.90;0.80;;;;;;;15.39;52.86;95909.77;105917;1252;61270;-38
2024/01/04 03:08:57;;;;;;;0.90;0.80;;;;;;;15.39;52.89;95909.22;105826;1253;73491;-38
2024/01/04 03:11:24;;;;;;;0.90;0.80;;;;;;;15.39;52.86;95910.92;105860;1253;66259;-38
2024/01/04 03:13:50;;;;;;;0.90;0.90;;;;;;;15.39;52.92;95913.77;105857;1253;72569;-38
2024/01/04 03:16:19;;;;;;;0.70;0.70;;;;;;;15.38;52.77;95914.01;105662;1254;61275;-39
2024/01/04 03:18:45;;;;;;;0.80;0.80;;;;;;;15.39;52.85;95907.84;105590;1253;61692;-39
2024/01/04 03:21:13;;;;;;;0.70;0.70;;;;;;;15.39;52.84;95906.52;105560;1253;74658;-39
2024/01/04 03:23:40;;;;;;;1.00;0.90;;;;;;;15.38;52.86;95906.30;105912;1256;65757;-39
2024/01/04 03:26:06;;;;;;;1.10;1.00;;;;;;;15.39;52.90;95906.38;105638;1253;72645;-39
2024/01/04 03:28:33;;;;;;;0.80;0.70;;;;;;;15.37;52.78;95902.91;105733;1256;61221;-39
2024/01/04 03:31:01;;;;;;;1.00;0.90;;;;;;;15.38;52.96;95898.90;105894;1256;61308;-39
2024/01/04 03:33:28;;;;;;;1.10;0.90;;;;;;;15.37;52.86;95897.51;105882;1252;74620;-40
2024/01/04 03:35:55;;;;;;;0.80;0.70;;;;;;;15.37;52.89;95898.95;105600;1256;66376;-39
2024/01/04 03:38:22;;;;;;;0.90;0.80;;;;;;;15.37;52.85;95899.49;105914;1253;71531;-39
2024/01/04 03:40:48;;;;;;;0.80;0.80;;;;;;;15.36;52.81;95898.11;105845;1254;61215;-39
2024/01/04 03:43:15;;;;;;;1.20;0.90;;;;;;;15.36;52.89;95899.57;105890;1256;61330;-39
2024/01/04 03:45:41;;;;;;;0.90;0.80;;;;;;;15.36;52.77;95898.55;105834;1254;74373;-39
2024/01/04 03:48:08;;;;;;;1.00;0.90;;;;;;;15.36;52.89;95894.32;105902;1257;65501;-39
2024/01/04 03:50:35;;;;;;;0.70;0.70;;;;;;;15.35;52.87;95895.16;105749;1253;72693;-39
2024/01/04 03:53:02;;;;;;;0.90;0.80;;;;;;;15.35;52.88;95899.79;105778;1256;61247;-39
2024/01/04 03:55:28;;;;;;;0.90;0.80;;;;;;;15.35;53.00;95898.33;105580;1253;61290;-39
2024/01/04 03:57:56;;;;;;;0.80;0.80;;;;;;;15.35;52.91;95900.17;105637;1253;74585;-40
2024/01/04 04:00:23;;;;;;;1.20;0.90;;;;;;;15.35;52.88;95898.95;105798;1256;65937;-38
2024/01/04 04:02:51;;;;;;;0.80;0.80;;;;;;;15.34;52.86;95900.55;105918;1253;72607;-38
2024/01/04 04:05:18;;;;;;;0.70;0.70;;;;;;;15.35;52.85;95899.77;105712;1256;61226;-38
2024/01/04 04:07:44;;;;;;;0.70;0.70;;;;;;;15.35;52.83;95902.48;105915;1253;61336;-38
2024/01/04 04:10:11;;;;;;;0.60;0.60;;;;;;;15.35;53.00;95902.41;105881;1256;74416;-38
2024/01/04 04:12:38;;;;;;;1.00;0.90;;;;;;;15.35;52.85;95904.80;105775;1252;66264;-38
2024/01/04 04:15:05;;;;;;;0.70;0.70;;;;;;;15.35;52.83;95905.34;105629;1254;73353;-38
2024/01/04 04:17:35;;;;;;;0.80;0.80;;;;;;;15.35;52.91;95905.88;105937;1253;61304;-38
2024/01/04 04:20:02;;;;;;;1.20;0.70;;;;;;;15.35;52.88;95910.13;105924;1253;61218;-38
2024/01/04 04:22:28;;;;;;;0.90;0.80;;;;;;;15.36;52.91;95909.42;105902;1256;74587;-39
2024/01/04 04:24:55;;;;;;;0.80;0.70;;;;;;;15.35;52.87;95906.42;105894;1256;66118;-38
2024/01/04 04:27:22;;;;;;;0.70;0.70;;;;;;;15.35;52.93;95909.90;105736;1252;72575;-40
2024/01/04 04:29:48;;;;;;;1.10;0.70;;;;;;;15.35;52.86;95916.75;105556;1256;61349;-39
2024/01/04 04:32:15;;;;;;;0.70;0.60;;;;;;;15.35;52.82;95913.66;105931;1253;61353;-38
2024/01/04 04:34:42;;;;;;;1.20;1.10;;;;;;;15.36;52.83;95918.07;105834;1259;74441;-38
2024/01/04 04:37:09;;;;;;;1.00;0.90;;;;;;;15.36;52.90;95921.44;105753;1256;65811;-39
2024/01/04 04:39:35;;;;;;;1.00;0.70;;;;;;;15.35;52.79;95920.68;105525;1253;72371;-38
2024/01/04 04:42:02;;;;;;;0.90;0.80;;;;;;;15.35;52.86;95925.30;105523;1256;61238;-40
2024/01/04 04:44:29;;;;;;;0.80;0.80;;;;;;;15.35;52.86;95922.30;105763;1253;61295;-40
2024/01/04 04:46:57;;;;;;;0.70;0.70;;;;;;;15.35;52.87;95926.61;105980;1254;74615;-38
2024/01/04 04:49:23;;;;;;;0.90;0.70;;;;;;;15.36;52.85;95927.08;105848;1256;64943;-38
2024/01/04 04:51:50;;;;;;;1.00;0.90;;;;;;;15.35;52.92;95931.47;106071;1253;72556;-38
2024/01/04 04:54:17;;;;;;;0.90;0.80;;;;;;;15.35;52.86;95931.85;105551;1256;61229;-39
2024/01/04 04:56:44;;;;;;;0.70;0.70;;;;;;;15.35;52.95;95931.00;105929;1253;61318;-40
2024/01/04 04:59:12;;;;;;;0.90;0.80;;;;;;;15.35;52.86;95937.09;105660;1253;75677;-40
2024/01/04 05:01:43;;;;;;;0.70;0.70;;;;;;;15.34;52.79;95936.70;106238;1253;65982;-40
2024/01/04 05:04:10;;;;;;;0.70;0.70;;;;;;;15.35;52.90;95938.71;105866;1252;72414;-40
2024/01/04 05:06:37;;;;;;;0.80;0.80;;;;;;;15.35;52.84;95935.39;105890;1256;61218;-40
2024/01/04 05:09:04;;;;;;;0.60;0.60;;;;;;;15.35;52.79;95937.70;105936;1253;61661;-40
2024/01/04 05:11:30;;;;;;;0.70;0.70;;;;;;;15.35;52.80;95940.71;105816;1253;74392;-40
2024/01/04 05:13:57;;;;;;;0.80;0.80;;;;;;;15.35;52.78;95941.02;105674;1256;66125;-39
2024/01/04 05:16:23;;;;;;;0.60;0.60;;;;;;;15.36;52.88;95942.88;105745;1253;72439;-40
2024/01/04 05:18:50;;;;;;;0.80;0.80;;;;;;;15.36;52.88;95944.18;105911;1256;61231;-39
2024/01/04 05:21:17;;;;;;;0.70;0.60;;;;;;;15.35;52.87;95946.64;105768;1253;61452;-38
2024/01/04 05:23:44;;;;;;;0.70;0.70;;;;;;;15.35;52.82;95946.27;105820;1256;74293;-38
2024/01/04 05:26:19;;;;;;;0.80;0.80;;;;;;;15.36;52.90;95948.27;105707;1256;66080;-38
2024/01/04 05:28:46;;;;;;;0.90;0.80;;;;;;;15.35;52.85;95951.04;105779;1253;72448;-40
2024/01/04 05:31:12;;;;;;;0.80;0.70;;;;;;;15.35;52.88;95951.13;105635;1256;61393;-39
2024/01/04 05:33:39;;;;;;;1.10;0.80;;;;;;;15.35;52.92;95953.58;105611;1256;61201;-39
2024/01/04 05:36:06;;;;;;;0.80;0.70;;;;;;;15.35;52.94;95953.04;105675;1253;73391;-39
2024/01/04 05:38:33;;;;;;;0.70;0.70;;;;;;;15.36;52.87;95957.89;105803;1256;65123;-39
2024/01/04 05:41:00;;;;;;;0.80;0.60;;;;;;;15.36;52.87;95959.29;105621;1253;72646;-39
2024/01/04 05:43:29;;;;;;;0.60;0.60;;;;;;;15.36;52.85;95958.67;105846;1256;61251;-38
2024/01/04 05:45:56;;;;;;;0.80;0.60;;;;;;;15.36;52.91;95961.30;105727;1253;61241;-39
2024/01/04 05:48:22;;;;;;;0.80;0.80;;;;;;;15.36;52.86;95965.67;105530;1253;74482;-39
2024/01/04 05:50:49;;;;;;;0.70;0.70;;;;;;;15.36;52.90;95969.70;105705;1256;66050;-39
2024/01/04 05:53:17;;;;;;;0.80;0.80;;;;;;;15.36;52.97;95970.39;105559;1253;72541;-39
2024/01/04 05:55:44;;;;;;;2.30;0.90;;;;;;;15.37;52.83;95970.86;105554;1256;61240;-39
2024/01/04 05:58:10;;;;;;;1.10;0.70;;;;;;;15.36;52.97;95977.24;105524;1253;61315;-39
2024/01/04 06:00:37;;;;;;;0.90;0.80;;;;;;;15.37;52.95;95981.35;105634;1253;75017;-40
2024/01/04 06:03:05;;;;;;;0.60;0.60;;;;;;;15.37;52.90;95984.81;105674;1256;66277;-41
2024/01/04 06:05:31;;;;;;;0.90;0.70;;;;;;;15.37;52.94;95985.59;105701;1253;72610;-39
2024/01/04 06:07:58;;;;;;;0.80;0.70;;;;;;;15.37;52.87;95983.13;105761;1256;61175;-39
2024/01/04 06:10:25;;;;;;;0.60;0.60;;;;;;;15.37;52.90;95983.29;105762;1253;61321;-40
2024/01/04 06:12:52;;;;;;;0.90;0.60;;;;;;;15.38;52.95;95981.37;105813;1254;74577;-40
2024/01/04 06:15:19;;;;;;;1.00;0.80;;;;;;;15.38;52.94;95982.69;105893;1256;64860;-40
2024/01/04 06:17:46;;;;;;;0.70;0.70;;;;;;;15.38;52.87;95983.13;105685;1253;71961;-40
2024/01/04 06:20:13;;;;;;;0.70;0.60;;;;;;;15.38;52.86;95983.98;105556;1256;61157;-40
2024/01/04 06:22:40;;;;;;;1.00;0.80;;;;;;;15.39;52.82;95985.98;105566;1253;61288;-40
2024/01/04 06:25:07;;;;;;;0.80;0.80;;;;;;;15.39;52.92;95983.98;105698;1252;74570;-38
2024/01/04 06:27:34;;;;;;;0.90;0.70;;;;;;;15.39;52.95;95989.54;105889;1256;66121;-40
2024/01/04 06:30:01;;;;;;;0.80;0.70;;;;;;;15.40;52.94;95982.68;105619;1253;72425;-40
2024/01/04 06:32:28;;;;;;;0.80;0.80;;;;;;;15.40;53.03;95983.69;105543;1259;61350;-40
2024/01/04 06:34:55;;;;;;;0.70;0.60;;;;;;;15.40;52.90;95983.84;105738;1253;61316;-39
2024/01/04 06:37:21;;;;;;;0.80;0.70;;;;;;;15.40;52.84;95977.91;105516;1256;75728;-40
2024/01/04 06:39:50;;;;;;;0.60;0.60;;;;;;;15.41;52.83;95974.76;105607;1256;66145;-39
2024/01/04 06:42:19;;;;;;;0.70;0.70;;;;;;;15.42;52.92;95976.08;105591;1253;72377;-39
2024/01/04 06:44:47;;;;;;;0.60;0.60;;;;;;;15.41;52.92;95977.08;105495;1256;61250;-38
2024/01/04 06:47:14;;;;;;;0.60;0.60;;;;;;;15.42;52.77;95978.24;105416;1252;61285;-39
2024/01/04 06:49:41;;;;;;;0.50;0.50;;;;;;;15.42;52.87;95974.31;105377;1253;75361;-39
2024/01/04 06:52:08;;;;;;;0.70;0.70;;;;;;;15.42;52.88;95978.40;105407;1256;66198;-39
2024/01/04 06:54:35;;;;;;;1.00;0.60;;;;;;;15.43;52.84;95977.55;105887;1253;72732;-39
2024/01/04 06:57:06;;;;;;;0.60;0.60;;;;;;;15.44;52.88;95974.02;105565;1256;61232;-39
2024/01/04 06:59:33;;;;;;;0.90;0.80;;;;;;;15.44;52.80;95981.13;105852;1253;61993;-39
2024/01/04 07:02:00;;;;;;;0.60;0.60;;;;;;;15.44;52.90;95980.67;105741;1254;74571;-39
2024/01/04 07:04:26;;;;;;;1.40;0.70;;;;;;;15.45;52.83;95987.55;105572;1256;65475;-39
2024/01/04 07:06:53;;;;;;;0.60;0.60;;;;;;;15.45;52.85;95986.33;106013;1253;72638;-39
2024/01/04 07:09:20;;;;;;;0.60;0.60;;;;;;;15.45;52.77;95986.86;105550;1256;61217;-40
2024/01/04 07:11:46;;;;;;;0.60;0.60;;;;;;;15.46;52.85;95984.48;105888;1253;61230;-39
2024/01/04 07:14:13;;;;;;;0.70;0.60;;;;;;;15.46;52.91;95984.71;105597;1256;74389;-38
2024/01/04 07:16:46;;;;;;;0.50;0.50;;;;;;;15.47;52.77;95979.95;105650;1256;65067;-38
2024/01/04 07:19:13;;;;;;;0.70;0.70;;;;;;;15.47;52.87;95980.17;105742;1253;71439;-40
2024/01/04 07:21:41;;;;;;;0.70;0.70;;;;;;;15.47;52.70;95981.57;106073;1256;61324;-41
2024/01/04 07:24:08;;;;;;;0.80;0.80;;;;;;;15.48;52.80;95976.40;105577;1253;61356;-38
2024/01/04 07:26:34;;;;;;;0.60;0.60;;;;;;;15.48;52.78;95969.47;105517;1254;74484;-37
2024/01/04 07:29:01;;;;;;;0.80;0.60;;;;;;;15.48;52.78;95975.34;105652;1256;64977;-39
2024/01/04 07:31:28;;;;;;;0.60;0.60;;;;;;;15.49;52.85;95978.73;105611;1253;72674;-41
2024/01/04 07:33:55;;;;;;;0.60;0.60;;;;;;;15.50;52.82;95981.83;105563;1256;61231;-40
2024/01/04 07:36:22;;;;;;;0.70;0.50;;;;;;;15.50;52.80;95973.02;105575;1253;61319;-38
2024/01/04 07:38:48;;;;;;;0.60;0.60;;;;;;;15.50;52.86;95976.98;105711;1253;74655;-40
2024/01/04 07:41:15;;;;;;;0.70;0.70;;;;;;;15.51;52.76;95974.74;105698;1253;67328;-41
2024/01/04 07:43:42;;;;;;;0.60;0.50;;;;;;;15.50;52.78;95975.43;105861;1253;72614;-40
2024/01/04 07:46:08;;;;;;;0.70;0.70;;;;;;;15.51;52.68;95973.59;105659;1256;61276;-39
2024/01/04 07:48:35;;;;;;;0.70;0.60;;;;;;;15.50;52.76;95971.42;105637;1253;61266;-39
2024/01/04 07:51:02;;;;;;;0.50;0.50;;;;;;;15.51;52.81;95977.67;105778;1256;75118;-40
2024/01/04 07:53:29;;;;;;;0.60;0.60;;;;;;;15.51;52.91;95977.83;105932;1256;65805;-40
2024/01/04 07:55:57;;;;;;;0.80;0.70;;;;;;;15.51;52.87;95967.64;105594;1253;72314;-39
2024/01/04 07:58:23;;;;;;;1.40;0.80;;;;;;;15.50;52.93;95977.20;105392;1259;61848;-39
2024/01/04 08:00:50;;;;;;;2.10;0.70;;;;;;;15.50;52.97;95970.10;105532;1254;61413;-39
2024/01/04 08:03:17;;;;;;;0.50;0.50;;;;;;;15.50;52.95;95969.70;105782;1256;74591;-40
2024/01/04 08:05:45;;;;;;;1.90;0.60;;;;;;;15.49;52.94;95969.94;105289;1253;67990;-40
2024/01/04 08:08:14;;;;;;;1.00;0.70;;;;;;;15.49;52.92;95973.89;106295;1256;71355;-40
2024/01/04 08:10:41;;;;;;;0.70;0.60;;;;;;;15.49;52.90;95975.73;105527;1254;61358;-38
2024/01/04 08:13:08;;;;;;;2.80;0.90;;;;;;;15.49;52.97;95982.42;105712;1253;61365;-39
2024/01/04 08:15:36;;;;;;;0.60;0.60;;;;;;;15.48;52.89;95976.80;105727;1256;74531;-39
2024/01/04 08:18:03;;;;;;;1.40;0.80;;;;;;;15.49;52.90;95975.65;105544;1256;66414;-39
2024/01/04 08:20:33;;;;;;;1.70;0.70;;;;;;;15.48;52.93;95982.11;105747;1254;71437;-40
2024/01/04 08:23:00;;;;;;;1.30;0.70;;;;;;;15.48;52.93;95978.41;105645;1254;61237;-39
2024/01/04 08:25:27;;;;;;;2.20;0.70;;;;;;;15.48;52.92;95982.04;105782;1253;61197;-39
2024/01/04 08:27:55;;;;;;;1.10;0.80;;;;;;;15.48;52.96;95979.88;105623;1253;74521;-40
2024/01/04 08:30:21;;;;;;;1.50;0.80;;;;;;;15.47;52.94;95978.56;105564;1256;66067;-39
2024/01/04 08:32:51;;;;;;;1.00;0.90;;;;;;;15.47;52.99;95978.56;105681;1256;72556;-40
2024/01/04 08:35:18;;;;;;;1.00;0.80;;;;;;;15.47;52.96;95981.49;105671;1252;61266;-39
2024/01/04 08:37:46;;;;;;;1.30;0.80;;;;;;;15.47;52.92;95981.79;105873;1254;61337;-40
2024/01/04 08:40:13;;;;;;;1.70;0.70;;;;;;;15.46;52.91;95978.40;105755;1253;74315;-40
2024/01/04 08:42:40;;;;;;;1.80;0.80;;;;;;;15.47;53.04;95973.16;105799;1256;66153;-40
2024/01/04 08:45:08;;;;;;;1.70;0.90;;;;;;;15.46;53.00;95972.15;105571;1251;72572;-39
2024/01/04 08:47:35;;;;;;;1.20;0.80;;;;;;;15.46;53.09;95972.61;106118;1251;61339;-39
2024/01/04 08:50:02;;;;;;;0.70;0.70;;;;;;;15.45;52.98;95967.21;105882;1251;61204;-40
2024/01/04 08:52:29;;;;;;;0.70;0.70;;;;;;;15.45;53.10;95969.29;105852;1251;74548;-40
2024/01/04 08:54:56;;;;;;;1.00;0.80;;;;;;;15.45;53.09;95965.14;105999;1256;65008;-39
2024/01/04 08:57:23;;;;;;;0.80;0.70;;;;;;;15.44;53.12;95961.10;105827;1255;73560;-39
2024/01/04 08:59:50;;;;;;;0.90;0.80;;;;;;;15.44;53.14;95964.02;105729;1257;61218;-42
2024/01/04 09:02:20;;;;;;;1.00;0.80;;;;;;;15.44;53.20;95960.30;105773;1251;61234;-39
2024/01/04 09:04:47;;;;;;;1.10;0.70;;;;;;;15.43;53.14;95956.20;105894;1256;74313;-39
2024/01/04 09:07:14;;;;;;;1.00;0.80;;;;;;;15.43;53.18;95956.29;105899;1254;65933;-39
2024/01/04 09:09:41;;;;;;;1.10;0.80;;;;;;;15.43;53.24;95956.35;105746;1255;73479;-39
2024/01/04 09:12:08;;;;;;;0.80;0.80;;;;;;;15.42;53.11;95955.27;109454;1251;60507;-40
2024/01/04 09:14:34;;;;;;;1.20;0.80;;;;;;;15.42;53.30;95952.97;106955;1254;61142;-39
2024/01/04 09:17:01;;;;;;;1.00;0.70;;;;;;;15.43;53.32;95951.58;105621;1256;74262;-39
2024/01/04 09:19:28;;;;;;;1.30;0.70;;;;;;;15.43;53.29;95947.27;105683;1256;67751;-39
2024/01/04 09:21:55;;;;;;;0.90;0.90;;;;;;;15.44;53.36;95947.89;105772;1252;73869;-38
2024/01/04 09:24:23;;;;;;;0.80;0.70;;;;;;;15.45;53.28;95949.33;109418;1251;59075;-39
2024/01/04 09:26:50;;;;;;;1.20;0.80;;;;;;;15.45;53.29;95946.79;108511;1251;61222;-39
2024/01/04 09:29:17;;;;;;;1.40;0.90;;;;;;;15.47;53.28;95946.03;105747;1254;75408;-39
2024/01/04 09:31:43;;;;;;;0.70;0.70;;;;;;;15.48;53.34;95949.52;106119;1250;66604;-41
2024/01/04 09:34:10;;;;;;;1.10;0.90;;;;;;;15.49;53.31;95944.35;105700;1256;72683;-40
2024/01/04 09:36:37;;;;;;;1.20;0.80;;;;;;;15.49;53.39;95942.42;106427;1256;61347;-38
2024/01/04 09:39:04;;;;;;;1.20;1.00;;;;;;;15.50;53.33;95943.89;105964;1252;61189;-41
2024/01/04 09:41:32;;;;;;;1.00;0.90;;;;;;;15.50;53.35;95945.60;105623;1252;75459;-40
2024/01/04 09:44:06;;;;;;;2.10;0.90;;;;;;;15.50;53.33;95945.13;105769;1256;66721;-40
2024/01/04 09:46:37;;;;;;;1.00;0.80;;;;;;;15.50;53.42;95945.60;105635;1254;72514;-41
2024/01/04 09:49:08;;;;;;;1.60;0.80;;;;;;;15.50;53.46;95944.44;105818;1256;61157;-39
2024/01/04 09:51:41;;;;;;;1.00;0.80;;;;;;;15.49;53.47;95944.90;106457;1256;61125;-39
2024/01/04 09:54:09;;;;;;;1.80;1.00;;;;;;;15.50;53.65;95944.83;105953;1254;73329;-38
2024/01/04 09:56:40;;;;;;;1.90;1.00;;;;;;;15.51;54.01;95944.85;106207;1255;67128;-38
2024/01/04 09:59:08;;;;;;;1.10;1.00;;;;;;;15.53;54.41;95947.48;105922;1255;72321;-39
2024/01/04 10:01:35;;;;;;;1.70;1.20;;;;;;;15.55;54.61;95947.89;105585;1266;61260;-40
2024/01/04 10:04:06;;;;;;;4.10;0.90;;;;;;;15.57;54.68;95948.76;109563;1253;59499;-40
2024/01/04 10:06:34;;;;;;;1.10;0.90;;;;;;;15.59;54.67;95950.39;106533;1251;74421;-40
2024/01/04 10:09:24;;;;;;;4.30;1.50;;;;;;;15.62;54.63;95952.35;105747;1252;66096;-40
2024/01/04 10:11:56;;;;;;;2.00;1.00;;;;;;;15.62;54.78;95945.65;105763;1257;72606;-41
2024/01/04 10:14:24;;;;;;;1.10;0.80;;;;;;;15.64;54.98;95948.28;105631;1259;61272;-39
2024/01/04 10:16:51;;;;;;;1.70;1.00;;;;;;;15.65;55.14;95945.13;109562;1250;58937;-39
2024/01/04 10:19:17;;;;;;;1.00;0.90;;;;;;;15.66;55.25;95944.99;109457;1251;75520;-39
2024/01/04 10:21:44;;;;;;;3.40;0.80;;;;;;;15.68;55.28;95944.00;108546;1255;65977;-39
2024/01/04 10:24:15;;;;;;;1.50;1.00;;;;;;;15.70;55.54;95940.55;105893;1251;73428;-40
2024/01/04 10:26:42;;;;;;;1.60;0.90;;;;;;;15.72;55.62;95947.12;106262;1256;61197;-39
2024/01/04 10:29:09;;;;;;;1.10;0.80;;;;;;;15.73;55.59;95946.83;105908;1256;61295;-39
2024/01/04 10:31:36;;;;;;;2.40;0.80;;;;;;;15.74;55.65;95940.74;105661;1257;74589;-40
2024/01/04 10:34:02;;;;;;;1.20;0.90;;;;;;;15.75;55.65;95942.29;105744;1255;65979;-40
2024/01/04 10:36:30;;;;;;;1.50;0.80;;;;;;;15.75;55.52;95942.52;106462;1257;71545;-39
2024/01/04 10:38:58;;;;;;;2.60;1.00;;;;;;;15.76;55.47;95941.68;105844;1251;61230;-40
2024/01/04 10:41:28;;;;;;;1.60;0.80;;;;;;;15.76;55.38;95942.08;105679;1252;61311;-39
2024/01/04 10:44:05;;;;;;;3.50;0.90;;;;;;;15.76;55.28;95943.30;105772;1256;75269;-40
2024/01/04 10:46:35;;;;;;;1.50;1.00;;;;;;;15.76;55.31;95942.60;105700;1257;65782;-40
2024/01/04 10:49:02;;;;;;;0.90;0.80;;;;;;;15.75;55.23;95943.38;105968;1252;73629;-40
2024/01/04 10:51:31;;;;;;;0.90;0.80;;;;;;;15.74;55.20;95939.13;105934;1256;61355;-40
2024/01/04 10:54:01;;;;;;;1.80;0.80;;;;;;;15.74;55.18;95933.33;105957;1251;61339;-40
2024/01/04 10:56:30;;;;;;;0.80;0.70;;;;;;;15.73;55.18;95930.48;105672;1264;74542;-39
2024/01/04 10:59:00;;;;;;;1.60;0.70;;;;;;;15.73;55.20;95927.31;105776;1257;64793;-40
2024/01/04 11:01:27;;;;;;;0.80;0.80;;;;;;;15.72;55.15;95932.00;105811;1257;72411;-41
2024/01/04 11:03:54;;;;;;;1.20;0.90;;;;;;;15.72;55.07;95927.14;105907;1255;61993;-41
2024/01/04 11:06:23;;;;;;;0.80;0.70;;;;;;;15.71;55.15;95924.52;105798;1251;61116;-39
2024/01/04 11:08:50;;;;;;;1.10;0.90;;;;;;;15.70;55.04;95920.35;105911;1252;74509;-40
2024/01/04 11:11:18;;;;;;;0.90;0.70;;;;;;;15.69;55.01;95916.73;105705;1256;66002;-40
2024/01/04 11:13:45;;;;;;;1.00;0.80;;;;;;;15.70;55.00;95916.33;105773;1251;72587;-40
2024/01/04 11:16:44;;;;;;;1.00;0.80;;;;;;;15.68;54.99;95913.25;105744;1256;61352;-40
2024/01/04 11:19:35;;;;;;;1.50;1.00;;;;;;;15.68;54.95;95914.02;105496;1255;61325;-39
2024/01/04 11:22:36;;;;;;;0.70;0.70;;;;;;;15.67;55.07;95913.54;105941;1251;75642;-40
2024/01/04 11:25:25;;;;;;;0.90;0.70;;;;;;;15.67;55.00;95909.21;105789;1257;66003;-40
2024/01/04 11:27:52;;;;;;;1.10;0.90;;;;;;;15.66;55.07;95907.05;105913;1257;72563;-40
2024/01/04 11:30:19;;;;;;;0.90;0.60;;;;;;;15.65;54.97;95908.83;105600;1257;61875;-40
2024/01/04 11:32:45;;;;;;;0.80;0.80;;;;;;;15.65;54.99;95906.42;105701;1256;61352;-39